Terminal Aerodrome Forecast
Issued by NWS

Home | Current Version | Previous Version | Text Only | Print | Product List | Glossary On
Versions: 1 2 3 4 5 6 7 8 9 10 11 12 13 14 15 16 17
000
FTUS42 KMLB 160500
TAFLEE
TAF
KLEE 160531Z 1606/1706 34011KT P6SM FEW020 BKN200
      TEMPO 1606/1607 BKN019
     FM161400 04015G22KT P6SM SCT050
     FM170100 03008KT P6SM BKN040=

USA.gov is the U.S. government's official web portal to all federal, state and local government web resources and services.